createdAt,value
2023-02-01T00:00:38.351Z,95087.84
2023-02-01T00:03:41.419Z,95088.91
2023-02-01T00:06:44.632Z,95075.41
2023-02-01T00:09:49.076Z,95087.34
2023-02-01T00:12:52.214Z,95076.47
2023-02-01T00:15:55.220Z,95075.69
2023-02-01T00:19:01.481Z,95056.19
2023-02-01T00:22:04.451Z,95079.94
2023-02-01T00:25:10.068Z,95074.91
2023-02-01T00:28:13.987Z,95076.78
2023-02-01T00:31:19.995Z,95077.56
2023-02-01T00:34:23.050Z,95072.53
2023-02-01T00:37:26.115Z,95071.75
2023-02-01T00:40:30.489Z,95072.03
2023-02-01T00:43:36.581Z,95063.56
2023-02-01T00:46:39.709Z,95055.59
2023-02-01T00:49:42.766Z,95056.69
2023-02-01T00:55:50.473Z,95052.44
2023-02-01T00:58:53.529Z,95047.41
2023-02-01T01:01:56.661Z,95043.97
2023-02-01T01:04:59.717Z,95049.28
2023-02-01T01:08:02.697Z,95042.88
2023-02-01T01:11:13.347Z,95049.91
2023-02-01T01:14:16.513Z,95050.38
2023-02-01T01:17:22.495Z,95059.44
2023-02-01T01:20:25.537Z,95043.38
2023-02-01T01:23:28.699Z,95051.47
2023-02-01T01:26:33.201Z,95042.22
2023-02-01T01:29:36.213Z,95052.56
2023-02-01T01:32:41.628Z,95053.63
2023-02-01T01:35:44.824Z,95028.44
2023-02-01T01:38:47.915Z,95056.31
2023-02-01T01:41:52.425Z,95061.13
2023-02-01T01:45:04.819Z,95065.66
2023-02-01T01:48:11.007Z,95060.44
2023-02-01T01:51:18.443Z,95071.78
2023-02-01T01:54:26.771Z,95062.78
2023-02-01T01:57:36.795Z,95064.38
2023-02-01T02:00:41.013Z,95059.84
2023-02-01T02:03:46.499Z,95061.69
2023-02-01T02:06:58.847Z,95050.69
2023-02-01T02:10:08.214Z,95057.78
2023-02-01T02:13:14.963Z,95052.75
2023-02-01T02:16:37.546Z,95054.81
2023-02-01T02:20:13.136Z,95043.97
2023-02-01T02:23:52.342Z,95047.91
2023-02-01T02:27:30.285Z,95035.72
2023-02-01T02:31:23.352Z,95042.13
2023-02-01T02:34:31.779Z,95044.78
2023-02-01T02:37:43.077Z,95044.41
2023-02-01T02:40:51.861Z,95031.28
2023-02-01T02:44:18.798Z,95051.97
2023-02-01T02:47:30.030Z,95041.91
2023-02-01T02:51:03.820Z,95049.59
2023-02-01T02:54:28.030Z,95041.91
2023-02-01T02:57:52.246Z,95043.50
2023-02-01T03:01:14.194Z,95044.59
2023-02-01T03:04:20.513Z,95037.38
2023-02-01T03:08:06.294Z,95043.78
2023-02-01T03:11:12.124Z,95049.13
2023-02-01T03:14:17.024Z,95064.28
2023-02-01T03:17:28.324Z,95063.50
2023-02-01T03:20:32.397Z,95034.66
2023-02-01T03:23:39.605Z,95078.66
2023-02-01T03:26:45.923Z,95068.31
2023-02-01T03:29:53.540Z,95067.63
2023-02-01T03:33:03.540Z,95091.16
2023-02-01T03:36:17.235Z,95074.72
2023-02-01T03:39:30.277Z,95081.13
2023-02-01T03:42:39.251Z,95090.69
2023-02-01T03:45:46.260Z,95086.44
2023-02-01T03:48:52.252Z,95088.81
2023-02-01T03:51:57.032Z,95088.03
2023-02-01T03:55:02.012Z,95075.31
2023-02-01T03:58:10.913Z,95085.97
2023-02-01T04:01:13.991Z,95089.09
2023-02-01T04:04:23.457Z,95086.44
2023-02-01T04:07:26.524Z,95085.38
2023-02-01T04:10:31.103Z,95089.91
2023-02-01T04:13:34.188Z,95072.38
2023-02-01T04:16:38.576Z,95073.72
2023-02-01T04:19:43.348Z,95081.13
2023-02-01T04:22:46.405Z,95081.44
2023-02-01T04:25:50.785Z,95067.53
2023-02-01T04:28:54.438Z,95077.88
2023-02-01T04:31:59.843Z,95067.25
2023-02-01T04:35:02.850Z,95074.13
2023-02-01T04:38:07.315Z,95079.03
2023-02-01T04:41:11.802Z,95086.34
2023-02-01T04:44:16.623Z,95080.72
2023-02-01T04:47:22.248Z,95077.78
2023-02-01T04:50:25.844Z,95085.06
2023-02-01T04:53:29.397Z,95080.28
2023-02-01T04:56:35.822Z,95078.97
2023-02-01T04:59:38.825Z,95081.31
2023-02-01T05:02:41.805Z,95089.66
2023-02-01T05:09:09.746Z,95105.63
2023-02-01T05:12:39.702Z,95108.59
2023-02-01T05:15:42.759Z,95120.41
2023-02-01T05:18:45.883Z,95118.88
2023-02-01T05:21:48.927Z,95121.81
2023-02-01T05:24:51.921Z,95114.59
2023-02-01T05:27:57.104Z,95106.78
2023-02-01T05:31:00.280Z,95101.25
2023-02-01T05:34:05.833Z,95119.34
2023-02-01T05:37:08.926Z,95124.69
2023-02-01T05:40:13.103Z,95124.50
2023-02-01T05:43:18.163Z,95114.22
2023-02-01T05:46:21.262Z,95125.94
2023-02-01T05:49:25.669Z,95117.97
2023-02-01T05:52:28.723Z,95112.84
2023-02-01T05:55:31.814Z,95106.25
2023-02-01T05:58:36.461Z,95107.50
2023-02-01T06:01:39.476Z,95111.66
2023-02-01T06:04:42.590Z,95117.13
2023-02-01T06:07:45.626Z,95126.31
2023-02-01T06:10:48.922Z,95102.38
2023-02-01T06:13:53.363Z,95131.06
2023-02-01T06:16:59.418Z,95130.38
2023-02-01T06:20:02.516Z,95121.50
2023-02-01T06:23:06.642Z,95115.69
2023-02-01T06:26:09.947Z,95125.69
2023-02-01T06:29:14.606Z,95129.19
2023-02-01T06:32:20.528Z,95128.81
2023-02-01T06:35:23.472Z,95117.84
2023-02-01T06:38:27.260Z,95130.78
2023-02-01T06:41:30.340Z,95127.59
2023-02-01T06:47:37.671Z,95124.19
2023-02-01T06:50:40.715Z,95145.53
2023-02-01T06:53:43.705Z,95140.53
2023-02-01T06:56:46.739Z,95133.13
2023-02-01T06:59:51.098Z,95143.59
2023-02-01T07:02:54.160Z,95149.41
2023-02-01T07:05:59.971Z,95149.88
2023-02-01T07:09:03.032Z,95151.34
2023-02-01T07:12:06.681Z,95156.28
2023-02-01T07:15:11.937Z,95163.97
2023-02-01T07:18:15.290Z,95166.94
2023-02-01T07:21:18.348Z,95170.06
2023-02-01T07:24:23.694Z,95172.75
2023-02-01T07:27:27.055Z,95184.97
2023-02-01T07:30:31.791Z,95176.97
2023-02-01T07:33:35.290Z,95182.28
2023-02-01T07:36:38.276Z,95182.00
2023-02-01T07:39:41.282Z,95183.88
2023-02-01T07:42:46.189Z,95187.63
2023-02-01T07:45:58.846Z,95186.63
2023-02-01T07:49:02.011Z,95187.72
2023-02-01T07:55:11.279Z,95204.56
2023-02-01T07:58:16.157Z,95161.47
2023-02-01T08:01:25.391Z,95206.13
2023-02-01T08:04:30.227Z,95205.75
2023-02-01T08:07:33.277Z,95216.47
2023-02-01T08:10:36.548Z,95222.09
2023-02-01T08:13:42.134Z,95219.94
2023-02-01T08:16:48.836Z,95214.91
2023-02-01T08:19:51.975Z,95215.19
2023-02-01T08:22:58.358Z,95206.91
2023-02-01T08:26:08.175Z,95211.44
2023-02-01T08:29:12.570Z,95219.13
2023-02-01T08:32:17.161Z,95213.53
2023-02-01T08:35:21.195Z,95211.94
2023-02-01T08:38:25.233Z,95219.94
2023-02-01T08:41:30.609Z,95220.72
2023-02-01T08:44:33.961Z,95221.78
2023-02-01T08:50:45.075Z,95209.28
2023-02-01T08:53:48.675Z,95218.22
2023-02-01T08:56:54.605Z,95217.03
2023-02-01T08:59:57.653Z,95209.53
2023-02-01T09:03:05.050Z,95208.16
2023-02-01T09:06:09.874Z,95218.81
2023-02-01T09:09:12.988Z,95209.16
2023-02-01T09:12:16.621Z,95216.41
2023-02-01T09:15:20.042Z,95222.81
2023-02-01T09:18:24.494Z,95223.91
2023-02-01T09:21:29.599Z,95218.69
2023-02-01T09:24:32.814Z,95223.72
2023-02-01T09:27:36.338Z,95238.91
2023-02-01T09:30:42.240Z,95225.59
2023-02-01T09:33:49.724Z,95225.09
2023-02-01T09:36:52.872Z,95222.44
2023-02-01T09:43:18.210Z,95206.66
2023-02-01T09:46:25.605Z,95210.13
2023-02-01T09:49:35.896Z,95205.50
2023-02-01T09:52:45.472Z,95191.91
2023-02-01T09:55:51.552Z,95196.94
2023-02-01T09:59:03.023Z,95185.09
2023-02-01T10:02:15.624Z,95171.66
2023-02-01T10:05:29.955Z,95175.41
2023-02-01T10:08:42.309Z,95176.81
2023-02-01T10:12:03.140Z,95167.53
2023-02-01T10:15:22.121Z,95177.69
2023-02-01T10:18:45.463Z,95164.56
2023-02-01T10:21:56.527Z,95171.66
2023-02-01T10:25:07.038Z,95165.72
2023-02-01T10:28:18.260Z,95150.28
2023-02-01T10:31:25.003Z,95148.47
2023-02-01T10:34:30.323Z,95132.03
2023-02-01T10:37:39.125Z,95132.13
2023-02-01T10:40:43.874Z,95136.06
2023-02-01T10:43:52.234Z,95135.16
2023-02-01T10:46:57.603Z,95114.34
2023-02-01T10:50:16.086Z,95134.44
2023-02-01T10:53:26.558Z,95139.47
2023-02-01T10:56:30.848Z,95122.72
2023-02-01T10:59:39.932Z,95118.16
2023-02-01T11:02:43.004Z,95113.03
2023-02-01T11:05:47.050Z,95107.38
2023-02-01T11:08:56.203Z,95113.81
2023-02-01T11:12:02.148Z,95113.50
2023-02-01T11:15:17.295Z,95114.28
2023-02-01T11:18:22.479Z,95110.84
2023-02-01T11:21:25.792Z,95122.28
2023-02-01T11:24:33.958Z,95112.72
2023-02-01T11:27:43.075Z,95105.50
2023-02-01T11:30:55.622Z,95107.22
2023-02-01T11:34:03.093Z,95096.16
2023-02-01T11:37:19.044Z,95101.69
2023-02-01T11:40:31.601Z,95101.97
2023-02-01T11:43:37.938Z,95101.97
2023-02-01T11:46:43.624Z,95101.97
2023-02-01T11:49:47.021Z,95101.00
2023-02-01T11:53:11.979Z,95094.91
2023-02-01T11:56:28.302Z,95091.75
2023-02-01T11:59:56.261Z,95081.09
2023-02-01T12:03:17.732Z,95067.47
2023-02-01T12:06:34.623Z,95076.09
2023-02-01T12:09:54.772Z,95060.09
2023-02-01T12:13:15.763Z,95064.66
2023-02-01T12:16:33.298Z,95066.69
2023-02-01T12:19:52.434Z,95071.41
2023-02-01T12:23:12.350Z,95068.97
2023-02-01T12:26:43.314Z,95074.16
2023-02-01T12:30:27.865Z,95066.66
2023-02-01T12:33:44.088Z,95067.63
2023-02-01T12:36:54.468Z,95061.91
2023-02-01T12:40:11.635Z,95061.59
2023-02-01T12:43:22.849Z,95062.38
2023-02-01T12:46:33.741Z,95067.28
2023-02-01T12:49:48.277Z,95072.13
2023-02-01T12:52:53.800Z,95065.84
2023-02-01T12:56:00.197Z,95057.38
2023-02-01T12:59:06.801Z,95067.63
2023-02-01T13:02:18.400Z,95057.50
2023-02-01T13:05:24.759Z,95059.28
2023-02-01T13:08:35.207Z,95066.78
2023-02-01T13:11:40.748Z,95057.63
2023-02-01T13:14:48.575Z,95055.56
2023-02-01T13:17:57.299Z,95047.69
2023-02-01T13:21:07.965Z,95058.16
2023-02-01T13:24:28.863Z,95058.75
2023-02-01T13:27:35.956Z,95060.44
2023-02-01T13:30:55.880Z,95059.97
2023-02-01T13:34:25.974Z,95061.66
2023-02-01T13:38:00.619Z,95059.31
2023-02-01T13:41:20.734Z,95063.31
2023-02-01T13:44:30.882Z,95054.38
2023-02-01T13:47:36.091Z,95051.41
2023-02-01T13:50:43.288Z,95059.69
2023-02-01T13:53:50.125Z,95053.88
2023-02-01T13:56:53.176Z,95054.97
2023-02-01T14:00:10.815Z,95070.47
2023-02-01T14:03:21.915Z,95055.59
2023-02-01T14:06:46.503Z,95072.34
2023-02-01T14:09:50.069Z,95066.22
2023-02-01T14:12:53.705Z,95057.47
2023-02-01T14:16:15.293Z,95062.78
2023-02-01T14:19:23.639Z,95057.75
2023-02-01T14:22:37.334Z,95055.59
2023-02-01T14:25:44.634Z,95056.66
2023-02-01T14:29:03.146Z,95050.25
2023-02-01T14:32:11.837Z,95052.13
2023-02-01T14:35:23.364Z,95049.47
2023-02-01T14:38:28.059Z,95037.25
2023-02-01T14:41:35.642Z,95026.91
2023-02-01T14:44:41.242Z,95033.50
2023-02-01T14:48:42.246Z,95036.78
2023-02-01T14:51:45.698Z,95039.72
2023-02-01T14:54:55.497Z,95038.72
2023-02-01T14:58:02.873Z,95044.53
2023-02-01T15:01:08.156Z,95062.09
2023-02-01T15:04:14.585Z,95056.28
2023-02-01T15:07:17.760Z,95058.44
2023-02-01T15:10:24.334Z,95057.34
2023-02-01T15:13:29.547Z,95036.78
2023-02-01T15:16:33.430Z,95055.19
2023-02-01T15:19:36.422Z,95053.31
2023-02-01T15:22:39.782Z,95054.41
2023-02-01T15:25:48.601Z,95044.34
2023-02-01T15:28:51.664Z,95035.59
2023-02-01T15:31:55.192Z,95039.81
2023-02-01T15:34:58.183Z,95025.44
2023-02-01T15:38:25.592Z,95040.13
2023-02-01T15:41:32.877Z,95034.50
2023-02-01T15:44:46.484Z,95026.03
2023-02-01T15:47:50.769Z,95031.06
2023-02-01T15:50:58.290Z,95029.97
2023-02-01T15:54:06.708Z,95032.94
2023-02-01T15:57:11.186Z,95037.94
2023-02-01T16:00:23.776Z,95039.81
2023-02-01T16:03:37.348Z,95047.03
2023-02-01T16:06:49.139Z,95038.72
2023-02-01T16:09:56.194Z,95053.66
2023-02-01T16:13:01.437Z,95059.94
2023-02-01T16:16:09.102Z,95061.09
2023-02-01T16:19:12.297Z,95074.97
2023-02-01T16:22:15.340Z,95070.25
2023-02-01T16:25:18.406Z,95046.81
2023-02-01T16:28:22.834Z,95071.66
2023-02-01T16:31:30.073Z,95062.31
2023-02-01T16:34:33.598Z,95069.50
2023-02-01T16:37:37.632Z,95060.03
2023-02-01T16:40:44.053Z,95083.31
2023-02-01T16:43:52.072Z,95079.97
2023-02-01T16:46:55.072Z,95084.06
2023-02-01T16:50:02.734Z,95083.72
2023-02-01T16:53:09.238Z,95075.28
2023-02-01T16:56:19.135Z,95079.03
2023-02-01T16:59:23.643Z,95076.56
2023-02-01T17:02:27.909Z,95079.72
2023-02-01T17:05:31.166Z,95082.84
2023-02-01T17:08:36.565Z,95079.88
2023-02-01T17:11:42.180Z,95070.63
2023-02-01T17:14:46.581Z,95072.19
2023-02-01T17:17:55.056Z,95076.09
2023-02-01T17:20:58.161Z,95068.09
2023-02-01T17:24:01.917Z,95074.41
2023-02-01T17:27:13.255Z,95071.56
2023-02-01T17:30:20.073Z,95061.84
2023-02-01T17:33:26.442Z,95043.50
2023-02-01T17:36:29.547Z,95048.84
2023-02-01T17:39:49.899Z,95055.72
2023-02-01T17:43:03.620Z,95059.31
2023-02-01T17:46:13.662Z,95055.34
2023-02-01T17:49:16.718Z,95057.81
2023-02-01T17:52:20.276Z,95060.31
2023-02-01T17:55:26.686Z,95050.25
2023-02-01T17:58:33.644Z,95050.84
2023-02-01T18:01:38.242Z,95058.34
2023-02-01T18:04:41.388Z,95058.16
2023-02-01T18:07:44.376Z,95064.84
2023-02-01T18:10:50.954Z,95074.72
2023-02-01T18:13:54.963Z,95060.13
2023-02-01T18:17:02.322Z,95059.66
2023-02-01T18:20:06.339Z,95059.94
2023-02-01T18:23:19.752Z,95072.53
2023-02-01T18:26:22.858Z,95061.59
2023-02-01T18:29:25.923Z,95057.84
2023-02-01T18:32:30.348Z,95063.16
2023-02-01T18:35:33.845Z,95059.22
2023-02-01T18:38:36.825Z,95057.47
2023-02-01T18:41:40.645Z,95058.88
2023-02-01T18:44:43.617Z,95043.78
2023-02-01T18:47:48.089Z,95048.91
2023-02-01T18:50:57.303Z,95026.81
2023-02-01T18:54:00.372Z,95055.59
2023-02-01T18:57:06.151Z,95062.34
2023-02-01T19:00:11.939Z,95039.97
2023-02-01T19:03:21.091Z,95040.75
2023-02-01T19:06:24.120Z,95032.16
2023-02-01T19:09:28.618Z,95045.22
2023-02-01T19:12:34.339Z,95032.47
2023-02-01T19:15:43.351Z,95032.16
2023-02-01T19:18:52.330Z,95041.75
2023-02-01T19:21:55.306Z,95038.19
2023-02-01T19:24:58.275Z,95044.59
2023-02-01T19:28:01.377Z,95047.56
2023-02-01T19:31:05.165Z,95039.88
2023-02-01T19:34:10.809Z,95048.66
2023-02-01T19:37:14.107Z,95045.69
2023-02-01T19:40:19.856Z,95040.97
2023-02-01T19:43:22.943Z,95037.22
2023-02-01T19:46:26.187Z,95041.94
2023-02-01T19:49:33.446Z,95046.47
2023-02-01T19:52:37.201Z,95045.22
2023-02-01T19:55:40.206Z,95025.97
2023-02-01T19:58:44.002Z,95043.03
2023-02-01T20:01:50.079Z,95034.25
2023-02-01T20:04:56.147Z,95038.78
2023-02-01T20:08:03.607Z,95040.16
2023-02-01T20:11:07.501Z,95040.56
2023-02-01T20:14:10.743Z,95035.91
2023-02-01T20:17:16.499Z,95040.38
2023-02-01T20:20:21.242Z,95044.13
2023-02-01T20:23:24.554Z,95023.03
2023-02-01T20:26:28.773Z,95031.69
2023-02-01T20:29:31.839Z,95037.88
2023-02-01T20:32:34.893Z,95045.09
2023-02-01T20:35:39.619Z,95051.19
2023-02-01T20:38:42.973Z,95046.66
2023-02-01T20:41:46.015Z,95044.00
2023-02-01T20:44:49.102Z,95057.78
2023-02-01T20:47:52.807Z,95040.53
2023-02-01T20:50:58.633Z,95047.63
2023-02-01T20:54:04.249Z,95041.16
2023-02-01T20:57:07.469Z,95036.22
2023-02-01T21:00:11.889Z,95042.75
2023-02-01T21:03:15.274Z,95046.13
2023-02-01T21:06:19.673Z,95023.59
2023-02-01T21:09:30.358Z,95047.63
2023-02-01T21:12:33.335Z,95039.44
2023-02-01T21:15:37.102Z,95026.31
2023-02-01T21:18:40.919Z,95047.53
2023-02-01T21:21:45.334Z,95039.53
2023-02-01T21:24:49.462Z,95045.91
2023-02-01T21:27:52.510Z,95056.56
2023-02-01T21:30:55.589Z,95052.31
2023-02-01T21:34:05.970Z,95058.44
2023-02-01T21:37:10.299Z,95052.31
2023-02-01T21:40:16.737Z,95055.22
2023-02-01T21:43:22.418Z,95062.19
2023-02-01T21:46:25.563Z,95062.47
2023-02-01T21:49:29.097Z,95063.88
2023-02-01T21:52:34.607Z,95058.84
2023-02-01T21:55:37.639Z,95062.59
2023-02-01T21:58:42.088Z,95060.22
2023-02-01T22:01:45.229Z,95052.06
2023-02-01T22:04:49.159Z,95052.06
2023-02-01T22:07:53.601Z,95055.22
2023-02-01T22:10:56.570Z,95048.81
2023-02-01T22:13:59.555Z,95050.88
2023-02-01T22:20:08.207Z,95049.97
2023-02-01T22:23:12.698Z,95045.13
2023-02-01T22:26:16.179Z,95027.53
2023-02-01T22:29:20.350Z,95045.91
2023-02-01T22:32:23.567Z,95054.41
2023-02-01T22:35:26.633Z,95062.09
2023-02-01T22:38:35.232Z,95065.53
2023-02-01T22:41:41.623Z,95060.53
2023-02-01T22:44:45.162Z,95062.09
2023-02-01T22:47:49.944Z,95066.63
2023-02-01T22:50:52.949Z,95057.16
2023-02-01T22:53:58.061Z,95061.41
2023-02-01T22:57:03.363Z,95061.88
2023-02-01T23:00:07.934Z,95051.47
2023-02-01T23:03:11.266Z,95060.31
2023-02-01T23:06:18.761Z,95056.84
2023-02-01T23:09:25.806Z,95069.38
2023-02-01T23:12:28.892Z,95064.06
2023-02-01T23:15:32.102Z,95065.94
2023-02-01T23:18:35.232Z,95063.88
2023-02-01T23:21:38.490Z,95063.28
2023-02-01T23:24:43.166Z,95056.06
2023-02-01T23:37:09.368Z,95050.97
2023-02-01T23:40:14.855Z,95063.28
2023-02-01T23:43:35.022Z,95063.28
2023-02-01T23:46:42.597Z,95066.22
2023-02-01T23:49:47.499Z,95066.22
2023-02-01T23:52:50.558Z,95066.22
2023-02-01T23:55:55.845Z,95056.97
